Track Авдеев Виталий

Time Latitude Longitude Accuracy (66% radius in meters) Altitude (meters) Speed (km/hour) Bearing (degrees) Battery (%) GPS flag
06:22:23 57.198850 60.119664 0 0 0 0 1 delete
06:22:21 57.198930 60.119565 0 0 0 0 1 delete
06:22:19 57.198981 60.119466 0 0 0 0 1 delete
06:22:15 57.199072 60.119322 0 0 0 0 1 delete
06:22:09 57.199154 60.119026 0 0 0 0 1 delete
06:22:08 57.199169 60.118980 0 0 0 0 1 delete
06:22:05 57.199226 60.118923 0 0 0 0 1 delete
06:22:03 57.199274 60.118904 0 0 0 0 1 delete
06:21:59 57.199378 60.118893 0 0 0 0 1 delete
06:21:54 57.199442 60.119083 0 0 0 0 1 delete
06:21:53 57.199456 60.119129 0 0 0 0 1 delete
06:21:49 57.199560 60.119145 0 0 0 0 1 delete
06:21:48 57.199583 60.119163 0 0 0 0 1 delete
06:21:47 57.199612 60.119158 0 0 0 0 1 delete
06:21:46 57.199638 60.119145 0 0 0 0 1 delete
06:21:43 57.199776 60.119105 0 0 0 0 1 delete
06:21:40 57.199845 60.118977 0 0 0 0 1 delete
06:21:37 57.199874 60.118767 0 0 0 0 1 delete
06:21:36 57.199906 60.118701 0 0 0 0 1 delete
06:21:35 57.199978 60.118650 0 0 0 0 1 delete
06:21:33 57.200171 60.118666 0 0 0 0 1 delete
06:21:31 57.200388 60.118689 0 0 0 0 1 delete
06:21:30 57.200514 60.118674 0 0 0 0 1 delete
06:21:28 57.200709 60.118574 0 0 0 0 1 delete
06:21:24 57.200953 60.118460 0 0 0 0 1 delete
06:21:23 57.200985 60.118455 0 0 0 0 1 delete
06:21:21 57.201069 60.118463 0 0 0 0 1 delete
06:21:18 57.201182 60.118534 0 0 0 0 1 delete
06:21:13 57.201387 60.118631 0 0 0 0 1 delete
06:21:09 57.201520 60.118693 0 0 0 0 1 delete
06:21:04 57.201640 60.118748 0 0 0 0 1 delete
06:20:59 57.201755 60.118780 0 0 0 0 1 delete
06:20:55 57.201823 60.118815 0 0 0 0 1 delete
06:20:52 57.201893 60.118844 0 0 0 0 1 delete
06:20:49 57.201938 60.118872 0 0 0 0 1 delete
06:20:44 57.202078 60.118916 0 0 0 0 1 delete
06:20:40 57.202183 60.118984 0 0 0 0 1 delete
06:20:34 57.202331 60.119169 0 0 0 0 1 delete
06:20:33 57.202355 60.119207 0 0 0 0 1 delete
06:20:29 57.202445 60.119392 0 0 0 0 1 delete
06:20:25 57.202450 60.119752 0 0 0 0 1 delete
06:20:22 57.202445 60.120071 0 0 0 0 1 delete
06:20:19 57.202523 60.120251 0 0 0 0 1 delete
06:20:16 57.202665 60.120155 0 0 0 0 1 delete
06:20:13 57.202834 60.119986 0 0 0 0 1 delete
06:20:10 57.203001 60.119795 0 0 0 0 1 delete
06:20:09 57.203042 60.119734 0 0 0 0 1 delete
06:20:05 57.203263 60.119524 0 0 0 0 1 delete
06:19:59 57.203331 60.119420 0 0 0 0 1 delete